sensor_id;sensor_type;location;lat;lon;timestamp;pressure;altitude;pressure_sealevel;temperature;humidity
21824;BME280;11074;48.596;9.238;2022-10-16T00:01:25;98069.38;;;16.71;100.00
21824;BME280;11074;48.596;9.238;2022-10-16T00:03:51;98070.47;;;16.70;100.00
21824;BME280;11074;48.596;9.238;2022-10-16T00:06:20;98065.66;;;16.67;100.00
21824;BME280;11074;48.596;9.238;2022-10-16T00:08:47;98073.75;;;16.67;100.00
21824;BME280;11074;48.596;9.238;2022-10-16T00:11:19;98082.38;;;16.69;100.00
21824;BME280;11074;48.596;9.238;2022-10-16T00:13:47;98073.75;;;16.67;100.00
21824;BME280;11074;48.596;9.238;2022-10-16T00:16:14;98068.94;;;16.64;100.00
21824;BME280;11074;48.596;9.238;2022-10-16T00:18:40;98074.94;;;16.61;100.00
21824;BME280;11074;48.596;9.238;2022-10-16T00:21:15;98070.13;;;16.58;100.00
21824;BME280;11074;48.596;9.238;2022-10-16T00:23:41;98073.63;;;16.59;100.00
21824;BME280;11074;48.596;9.238;2022-10-16T00:26:11;98089.53;;;16.60;100.00
21824;BME280;11074;48.596;9.238;2022-10-16T00:28:38;98087.94;;;16.59;100.00
21824;BME280;11074;48.596;9.238;2022-10-16T00:31:10;98083.91;;;16.57;100.00
21824;BME280;11074;48.596;9.238;2022-10-16T00:33:38;98090.41;;;16.56;100.00
21824;BME280;11074;48.596;9.238;2022-10-16T00:36:06;98086.66;;;16.52;100.00
21824;BME280;11074;48.596;9.238;2022-10-16T00:38:32;98088.84;;;16.50;100.00
21824;BME280;11074;48.596;9.238;2022-10-16T00:40:59;98086.72;;;16.47;100.00
21824;BME280;11074;48.596;9.238;2022-10-16T00:46:15;98085.13;;;16.46;100.00
21824;BME280;11074;48.596;9.238;2022-10-16T00:48:48;98083.00;;;16.43;100.00
21824;BME280;11074;48.596;9.238;2022-10-16T00:51:17;98087.00;;;16.45;100.00
21824;BME280;11074;48.596;9.238;2022-10-16T00:53:45;98086.22;;;16.45;100.00
21824;BME280;11074;48.596;9.238;2022-10-16T00:56:11;98091.09;;;16.43;100.00
21824;BME280;11074;48.596;9.238;2022-10-16T00:58:37;98073.81;;;16.44;100.00
21824;BME280;11074;48.596;9.238;2022-10-16T01:01:03;98079.28;;;16.38;100.00
21824;BME280;11074;48.596;9.238;2022-10-16T01:03:35;98084.97;;;16.37;100.00
21824;BME280;11074;48.596;9.238;2022-10-16T01:06:34;98090.09;;;16.38;100.00
21824;BME280;11074;48.596;9.238;2022-10-16T01:09:34;98095.75;;;16.37;100.00
21824;BME280;11074;48.596;9.238;2022-10-16T01:12:41;98098.75;;;16.35;100.00
21824;BME280;11074;48.596;9.238;2022-10-16T01:15:41;98105.53;;;16.33;100.00
21824;BME280;11074;48.596;9.238;2022-10-16T01:21:05;98116.09;;;16.29;100.00
21824;BME280;11074;48.596;9.238;2022-10-16T01:29:25;98103.19;;;16.26;100.00
21824;BME280;11074;48.596;9.238;2022-10-16T01:32:01;98109.69;;;16.25;100.00
21824;BME280;11074;48.596;9.238;2022-10-16T01:38:28;98096.19;;;16.25;100.00
21824;BME280;11074;48.596;9.238;2022-10-16T01:41:01;98104.06;;;16.22;100.00
21824;BME280;11074;48.596;9.238;2022-10-16T01:44:24;98104.06;;;16.22;100.00
21824;BME280;11074;48.596;9.238;2022-10-16T01:46:32;98108.44;;;16.18;100.00
21824;BME280;11074;48.596;9.238;2022-10-16T01:49:00;98105.44;;;16.19;100.00
21824;BME280;11074;48.596;9.238;2022-10-16T01:51:29;98093.34;;;16.17;100.00
21824;BME280;11074;48.596;9.238;2022-10-16T01:53:59;98091.44;;;16.17;100.00
21824;BME280;11074;48.596;9.238;2022-10-16T01:56:27;98096.03;;;16.17;100.00
21824;BME280;11074;48.596;9.238;2022-10-16T01:59:02;98103.31;;;16.16;100.00
21824;BME280;11074;48.596;9.238;2022-10-16T02:01:33;98096.63;;;16.14;100.00
21824;BME280;11074;48.596;9.238;2022-10-16T02:04:09;98103.09;;;16.13;100.00
21824;BME280;11074;48.596;9.238;2022-10-16T02:06:38;98102.00;;;16.14;100.00
21824;BME280;11074;48.596;9.238;2022-10-16T02:09:03;98094.78;;;16.09;100.00
21824;BME280;11074;48.596;9.238;2022-10-16T02:11:29;98099.88;;;16.11;100.00
21824;BME280;11074;48.596;9.238;2022-10-16T02:14:05;98096.03;;;16.17;100.00
21824;BME280;11074;48.596;9.238;2022-10-16T02:16:43;98089.59;;;16.13;100.00
21824;BME280;11074;48.596;9.238;2022-10-16T02:19:09;98092.28;;;16.13;100.00
21824;BME280;11074;48.596;9.238;2022-10-16T02:21:44;98093.09;;;16.13;100.00
21824;BME280;11074;48.596;9.238;2022-10-16T02:25:05;98095.38;;;16.06;100.00
21824;BME280;11074;48.596;9.238;2022-10-16T02:28:03;98106.66;;;16.08;100.00
21824;BME280;11074;48.596;9.238;2022-10-16T02:30:39;98099.44;;;16.04;100.00
21824;BME280;11074;48.596;9.238;2022-10-16T02:33:10;98102.66;;;16.06;100.00
21824;BME280;11074;48.596;9.238;2022-10-16T02:35:40;98095.38;;;16.06;100.00
21824;BME280;11074;48.596;9.238;2022-10-16T02:38:09;98091.59;;;16.07;100.00
21824;BME280;11074;48.596;9.238;2022-10-16T02:40:36;98089.09;;;16.11;100.00
21824;BME280;11074;48.596;9.238;2022-10-16T02:43:04;98089.66;;;16.08;100.00
21824;BME280;11074;48.596;9.238;2022-10-16T02:45:30;98097.75;;;16.08;100.00
21824;BME280;11074;48.596;9.238;2022-10-16T02:47:56;98099.13;;;16.05;100.00
21824;BME280;11074;48.596;9.238;2022-10-16T02:50:22;98098.69;;;15.98;100.00
21824;BME280;11074;48.596;9.238;2022-10-16T02:52:49;98103.84;;;15.95;100.00
21824;BME280;11074;48.596;9.238;2022-10-16T02:55:15;98103.84;;;15.95;100.00
21824;BME280;11074;48.596;9.238;2022-10-16T02:57:41;98097.66;;;15.94;100.00
21824;BME280;11074;48.596;9.238;2022-10-16T03:00:09;98101.97;;;15.95;100.00
21824;BME280;11074;48.596;9.238;2022-10-16T03:02:37;98104.16;;;15.93;100.00
21824;BME280;11074;48.596;9.238;2022-10-16T03:05:03;98106.63;;;15.90;100.00
21824;BME280;11074;48.596;9.238;2022-10-16T03:07:28;98106.38;;;15.86;100.00
21824;BME280;11074;48.596;9.238;2022-10-16T03:09:54;98098.59;;;15.85;100.00
21824;BME280;11074;48.596;9.238;2022-10-16T03:12:21;98109.38;;;15.85;100.00
21824;BME280;11074;48.596;9.238;2022-10-16T03:14:47;98100.97;;;15.86;100.00
21824;BME280;11074;48.596;9.238;2022-10-16T03:17:13;98099.63;;;15.89;100.00
21824;BME280;11074;48.596;9.238;2022-10-16T03:19:39;98093.13;;;15.90;100.00
21824;BME280;11074;48.596;9.238;2022-10-16T03:22:05;98103.66;;;15.91;100.00
21824;BME280;11074;48.596;9.238;2022-10-16T03:24:30;98098.03;;;15.88;100.00
21824;BME280;11074;48.596;9.238;2022-10-16T03:26:56;98092.31;;;15.89;100.00
21824;BME280;11074;48.596;9.238;2022-10-16T03:29:22;98072.06;;;15.92;100.00
21824;BME280;11074;48.596;9.238;2022-10-16T03:31:48;98097.44;;;15.91;100.00
21824;BME280;11074;48.596;9.238;2022-10-16T03:34:15;98091.81;;;15.87;100.00
21824;BME280;11074;48.596;9.238;2022-10-16T03:36:40;98100.78;;;15.83;100.00
21824;BME280;11074;48.596;9.238;2022-10-16T03:39:06;98102.59;;;15.87;100.00
21824;BME280;11074;48.596;9.238;2022-10-16T03:41:32;98103.97;;;15.85;100.00
21824;BME280;11074;48.596;9.238;2022-10-16T03:43:57;98094.56;;;15.82;100.00
21824;BME280;11074;48.596;9.238;2022-10-16T03:46:23;98094.88;;;15.81;100.00
21824;BME280;11074;48.596;9.238;2022-10-16T03:48:49;98104.03;;;15.80;100.00
21824;BME280;11074;48.596;9.238;2022-10-16T03:51:15;98098.66;;;15.80;100.00
21824;BME280;11074;48.596;9.238;2022-10-16T03:53:40;98113.22;;;15.78;100.00
21824;BME280;11074;48.596;9.238;2022-10-16T03:56:06;98110.00;;;15.76;100.00
21824;BME280;11074;48.596;9.238;2022-10-16T03:58:32;98116.19;;;15.77;100.00
21824;BME280;11074;48.596;9.238;2022-10-16T04:00:57;98113.25;;;15.73;100.00
21824;BME280;11074;48.596;9.238;2022-10-16T04:03:23;98118.16;;;15.71;100.00
21824;BME280;11074;48.596;9.238;2022-10-16T04:05:49;98121.41;;;15.68;100.00
21824;BME280;11074;48.596;9.238;2022-10-16T04:08:15;98119.00;;;15.67;100.00
21824;BME280;11074;48.596;9.238;2022-10-16T04:10:44;98123.03;;;15.69;100.00
21824;BME280;11074;48.596;9.238;2022-10-16T04:13:11;98124.63;;;15.70;100.00
21824;BME280;11074;48.596;9.238;2022-10-16T04:15:37;98119.75;;;15.72;100.00
21824;BME280;11074;48.596;9.238;2022-10-16T04:18:05;98123.78;;;15.75;100.00
21824;BME280;11074;48.596;9.238;2022-10-16T04:20:31;98122.09;;;15.79;100.00
21824;BME280;11074;48.596;9.238;2022-10-16T04:22:57;98114.59;;;15.76;100.00
21824;BME280;11074;48.596;9.238;2022-10-16T04:25:23;98123.78;;;15.75;100.00
21824;BME280;11074;48.596;9.238;2022-10-16T04:27:48;98120.28;;;15.74;100.00
21824;BME280;11074;48.596;9.238;2022-10-16T04:30:14;98121.34;;;15.73;100.00
21824;BME280;11074;48.596;9.238;2022-10-16T04:32:40;98120.53;;;15.73;100.00
21824;BME280;11074;48.596;9.238;2022-10-16T04:35:07;98125.66;;;15.74;100.00
21824;BME280;11074;48.596;9.238;2022-10-16T04:37:33;98118.97;;;15.72;100.00
21824;BME280;11074;48.596;9.238;2022-10-16T04:39:58;98120.34;;;15.69;100.00
21824;BME280;11074;48.596;9.238;2022-10-16T04:42:24;98115.44;;;15.71;100.00
21824;BME280;11074;48.596;9.238;2022-10-16T04:44:50;98120.84;;;15.71;100.00
21824;BME280;11074;48.596;9.238;2022-10-16T04:47:15;98117.06;;;15.72;100.00
21824;BME280;11074;48.596;9.238;2022-10-16T04:49:41;98116.03;;;15.68;100.00
21824;BME280;11074;48.596;9.238;2022-10-16T04:52:07;98125.66;;;15.74;100.00
21824;BME280;11074;48.596;9.238;2022-10-16T04:54:34;98130.75;;;15.76;100.00
21824;BME280;11074;48.596;9.238;2022-10-16T04:57:00;98128.94;;;15.71;100.00
21824;BME280;11074;48.596;9.238;2022-10-16T04:59:26;98137.47;;;15.78;100.00
21824;BME280;11074;48.596;9.238;2022-10-16T05:01:52;98136.22;;;15.71;100.00
21824;BME280;11074;48.596;9.238;2022-10-16T05:04:17;98141.03;;;15.74;100.00
21824;BME280;11074;48.596;9.238;2022-10-16T05:06:43;98139.66;;;15.76;100.00
21824;BME280;11074;48.596;9.238;2022-10-16T05:09:09;98147.22;;;15.74;100.00
21824;BME280;11074;48.596;9.238;2022-10-16T05:11:35;98147.22;;;15.74;100.00
21824;BME280;11074;48.596;9.238;2022-10-16T05:14:02;98149.94;;;15.74;100.00
21824;BME280;11074;48.596;9.238;2022-10-16T05:16:28;98146.41;;;15.74;100.00
21824;BME280;11074;48.596;9.238;2022-10-16T05:18:54;98138.56;;;15.77;100.00
21824;BME280;11074;48.596;9.238;2022-10-16T05:21:20;98149.94;;;15.74;100.00
21824;BME280;11074;48.596;9.238;2022-10-16T05:23:46;98143.22;;;15.72;100.00
21824;BME280;11074;48.596;9.238;2022-10-16T05:26:12;98144.28;;;15.71;100.00
21824;BME280;11074;48.596;9.238;2022-10-16T05:28:37;98154.56;;;15.69;100.00
21824;BME280;11074;48.596;9.238;2022-10-16T05:31:08;98144.59;;;15.69;100.00
21824;BME280;11074;48.596;9.238;2022-10-16T05:33:39;98161.84;;;15.68;100.00
21824;BME280;11074;48.596;9.238;2022-10-16T05:36:07;98151.34;;;15.67;100.00
21824;BME280;11074;48.596;9.238;2022-10-16T05:38:35;98155.69;;;15.63;100.00
21824;BME280;11074;48.596;9.238;2022-10-16T05:41:05;98156.81;;;15.62;100.00
21824;BME280;11074;48.596;9.238;2022-10-16T05:43:31;98159.50;;;15.57;100.00
21824;BME280;11074;48.596;9.238;2022-10-16T05:46:04;98166.00;;;15.56;100.00
21824;BME280;11074;48.596;9.238;2022-10-16T05:48:31;98167.38;;;15.53;100.00
21824;BME280;11074;48.596;9.238;2022-10-16T05:51:06;98166.00;;;15.56;100.00
21824;BME280;11074;48.596;9.238;2022-10-16T05:53:37;98175.47;;;15.53;100.00
21824;BME280;11074;48.596;9.238;2022-10-16T05:56:05;98181.84;;;15.62;100.00
21824;BME280;11074;48.596;9.238;2022-10-16T05:58:34;98183.44;;;15.63;100.00
21824;BME280;11074;48.596;9.238;2022-10-16T06:01:09;98165.16;;;15.60;100.00
21824;BME280;11074;48.596;9.238;2022-10-16T06:03:35;98183.25;;;15.55;100.00
21824;BME280;11074;48.596;9.238;2022-10-16T06:06:18;98178.69;;;15.55;100.00
21824;BME280;11074;48.596;9.238;2022-10-16T06:08:46;98179.72;;;15.59;100.00
21824;BME280;11074;48.596;9.238;2022-10-16T06:11:22;98180.84;;;15.53;100.00
21824;BME280;11074;48.596;9.238;2022-10-16T06:13:53;98187.84;;;15.54;100.00
21824;BME280;11074;48.596;9.238;2022-10-16T06:16:26;98197.28;;;15.52;100.00
21824;BME280;11074;48.596;9.238;2022-10-16T06:18:53;98196.16;;;15.58;100.00
21824;BME280;11074;48.596;9.238;2022-10-16T06:21:23;98192.44;;;15.54;100.00
21824;BME280;11074;48.596;9.238;2022-10-16T06:23:54;98191.06;;;15.56;100.00
21824;BME280;11074;48.596;9.238;2022-10-16T06:26:23;98203.97;;;15.59;100.00
21824;BME280;11074;48.596;9.238;2022-10-16T06:28:49;98206.94;;;15.58;100.00
21824;BME280;11074;48.596;9.238;2022-10-16T06:31:16;98209.41;;;15.54;100.00
21824;BME280;11074;48.596;9.238;2022-10-16T06:33:43;98215.31;;;15.56;100.00
21824;BME280;11074;48.596;9.238;2022-10-16T06:36:15;98207.50;;;15.55;100.00
21824;BME280;11074;48.596;9.238;2022-10-16T06:38:42;98207.25;;;15.56;100.00
21824;BME280;11074;48.596;9.238;2022-10-16T06:41:13;98210.72;;;15.57;100.00
21824;BME280;11074;48.596;9.238;2022-10-16T06:43:39;98209.69;;;15.53;100.00
21824;BME280;11074;48.596;9.238;2022-10-16T06:46:09;98220.16;;;15.59;100.00
21824;BME280;11074;48.596;9.238;2022-10-16T06:48:36;98229.31;;;15.58;100.00
21824;BME280;11074;48.596;9.238;2022-10-16T06:51:04;98222.25;;;15.62;100.00
21824;BME280;11074;48.596;9.238;2022-10-16T06:53:33;98224.94;;;15.62;100.00
21824;BME280;11074;48.596;9.238;2022-10-16T06:56:14;98229.06;;;15.55;100.00
21824;BME280;11074;48.596;9.238;2022-10-16T06:58:41;98226.72;;;15.48;100.00
21824;BME280;11074;48.596;9.238;2022-10-16T07:01:09;98233.13;;;15.52;100.00
21824;BME280;11074;48.596;9.238;2022-10-16T07:03:43;98232.09;;;15.48;100.00
21824;BME280;11074;48.596;9.238;2022-10-16T07:06:13;98245.28;;;15.45;100.00
21824;BME280;11074;48.596;9.238;2022-10-16T07:08:42;98244.47;;;15.44;100.00
21824;BME280;11074;48.596;9.238;2022-10-16T07:11:12;98255.03;;;15.41;100.00
21824;BME280;11074;48.596;9.238;2022-10-16T07:13:41;98251.75;;;15.44;100.00
21824;BME280;11074;48.596;9.238;2022-10-16T07:18:39;98259.25;;;15.52;100.00
21824;BME280;11074;48.596;9.238;2022-10-16T07:21:09;98267.59;;;15.55;100.00
21824;BME280;11074;48.596;9.238;2022-10-16T07:23:35;98261.13;;;15.56;100.00
21824;BME280;11074;48.596;9.238;2022-10-16T07:26:01;98262.97;;;15.61;100.00
21824;BME280;11074;48.596;9.238;2022-10-16T07:28:28;98272.38;;;15.63;100.00
21824;BME280;11074;48.596;9.238;2022-10-16T07:30:54;98276.97;;;15.63;100.00
21824;BME280;11074;48.596;9.238;2022-10-16T07:33:20;98275.09;;;15.63;100.00
21824;BME280;11074;48.596;9.238;2022-10-16T07:35:54;98296.66;;;15.63;100.00
21824;BME280;11074;48.596;9.238;2022-10-16T07:38:21;98294.75;;;15.64;100.00
21824;BME280;11074;48.596;9.238;2022-10-16T07:40:48;98297.94;;;15.71;100.00
21824;BME280;11074;48.596;9.238;2022-10-16T07:43:14;98306.53;;;15.73;100.00
21824;BME280;11074;48.596;9.238;2022-10-16T07:45:50;98299.81;;;15.70;100.00
21824;BME280;11074;48.596;9.238;2022-10-16T07:48:17;98302.75;;;15.74;100.00
21824;BME280;11074;48.596;9.238;2022-10-16T07:50:44;98312.47;;;15.75;100.00
21824;BME280;11074;48.596;9.238;2022-10-16T07:53:11;98308.91;;;15.80;100.00
21824;BME280;11074;48.596;9.238;2022-10-16T07:55:37;98300.84;;;15.80;100.00
21824;BME280;11074;48.596;9.238;2022-10-16T07:58:03;98309.41;;;15.87;100.00
21824;BME280;11074;48.596;9.238;2022-10-16T08:00:29;98307.75;;;15.91;100.00
21824;BME280;11074;48.596;9.238;2022-10-16T08:02:59;98310.16;;;15.92;100.00
21824;BME280;11074;48.596;9.238;2022-10-16T08:05:29;98314.19;;;15.95;100.00
21824;BME280;11074;48.596;9.238;2022-10-16T08:07:56;98324.75;;;15.91;100.00
21824;BME280;11074;48.596;9.238;2022-10-16T08:10:25;98330.66;;;15.93;100.00
21824;BME280;11074;48.596;9.238;2022-10-16T08:12:52;98329.28;;;15.96;100.00
21824;BME280;11074;48.596;9.238;2022-10-16T08:15:19;98324.44;;;15.93;100.00
21824;BME280;11074;48.596;9.238;2022-10-16T08:17:57;98319.53;;;16.00;100.00
21824;BME280;11074;48.596;9.238;2022-10-16T08:20:24;98315.25;;;15.99;100.00
21824;BME280;11074;48.596;9.238;2022-10-16T08:22:50;98317.59;;;16.05;100.00
21824;BME280;11074;48.596;9.238;2022-10-16T08:25:15;98326.19;;;16.12;100.00
21824;BME280;11074;48.596;9.238;2022-10-16T08:27:41;98338.50;;;16.18;100.00
21824;BME280;11074;48.596;9.238;2022-10-16T08:30:08;98332.56;;;16.21;100.00
21824;BME280;11074;48.596;9.238;2022-10-16T08:32:34;98331.75;;;16.21;100.00
21824;BME280;11074;48.596;9.238;2022-10-16T08:34:59;98337.91;;;16.26;100.00
21824;BME280;11074;48.596;9.238;2022-10-16T08:37:30;98330.03;;;16.30;100.00
21824;BME280;11074;48.596;9.238;2022-10-16T08:39:56;98327.81;;;16.37;100.00
21824;BME280;11074;48.596;9.238;2022-10-16T08:43:10;98337.19;;;16.45;100.00
21824;BME280;11074;48.596;9.238;2022-10-16T08:48:52;98339.03;;;16.49;100.00
21824;BME280;11074;48.596;9.238;2022-10-16T08:51:26;98342.78;;;16.53;100.00
21824;BME280;11074;48.596;9.238;2022-10-16T08:54:26;98341.72;;;16.54;100.00
21824;BME280;11074;48.596;9.238;2022-10-16T08:57:06;98354.59;;;16.62;100.00
21824;BME280;11074;48.596;9.238;2022-10-16T08:59:33;98340.56;;;16.60;100.00
21824;BME280;11074;48.596;9.238;2022-10-16T09:01:59;98347.00;;;16.64;100.00
21824;BME280;11074;48.596;9.238;2022-10-16T09:04:51;98350.16;;;16.71;100.00
21824;BME280;11074;48.596;9.238;2022-10-16T09:08:09;98354.19;;;16.74;100.00
21824;BME280;11074;48.596;9.238;2022-10-16T09:11:02;98358.22;;;16.76;100.00
21824;BME280;11074;48.596;9.238;2022-10-16T09:14:30;98361.44;;;16.78;100.00
21824;BME280;11074;48.596;9.238;2022-10-16T09:20:28;98374.25;;;16.91;100.00
21824;BME280;11074;48.596;9.238;2022-10-16T09:25:32;98373.38;;;16.96;100.00
21824;BME280;11074;48.596;9.238;2022-10-16T09:27:59;98368.19;;;17.00;100.00
21824;BME280;11074;48.596;9.238;2022-10-16T09:30:29;98374.28;;;17.10;100.00
21824;BME280;11074;48.596;9.238;2022-10-16T09:32:58;98373.88;;;17.22;100.00
21824;BME280;11074;48.596;9.238;2022-10-16T09:35:37;98380.47;;;17.34;100.00
21824;BME280;11074;48.596;9.238;2022-10-16T09:38:03;98369.81;;;17.43;100.00
21824;BME280;11074;48.596;9.238;2022-10-16T09:40:36;98368.88;;;17.52;100.00
21824;BME280;11074;48.596;9.238;2022-10-16T09:46:28;98353.03;;;17.65;99.99
21824;BME280;11074;48.596;9.238;2022-10-16T09:49:03;98366.50;;;17.70;99.46
21824;BME280;11074;48.596;9.238;2022-10-16T09:51:35;98368.31;;;17.74;100.00
21824;BME280;11074;48.596;9.238;2022-10-16T09:54:14;98374.22;;;17.76;99.67
21824;BME280;11074;48.596;9.238;2022-10-16T09:56:40;98376.28;;;17.84;99.93
21824;BME280;11074;48.596;9.238;2022-10-16T09:59:16;98371.91;;;17.88;98.33
21824;BME280;11074;48.596;9.238;2022-10-16T10:04:12;98370.56;;;17.86;98.58
21824;BME280;11074;48.596;9.238;2022-10-16T10:06:53;98378.00;;;17.94;97.95
21824;BME280;11074;48.596;9.238;2022-10-16T10:09:32;98370.13;;;17.97;97.76
21824;BME280;11074;48.596;9.238;2022-10-16T10:12:03;98369.44;;;18.05;97.72
21824;BME280;11074;48.596;9.238;2022-10-16T10:14:52;98372.56;;;18.12;96.44
21824;BME280;11074;48.596;9.238;2022-10-16T10:17:22;98372.50;;;18.17;96.31
21824;BME280;11074;48.596;9.238;2022-10-16T10:19:58;98372.03;;;18.29;96.11
21824;BME280;11074;48.596;9.238;2022-10-16T10:33:52;98363.00;;;18.66;95.61
21824;BME280;11074;48.596;9.238;2022-10-16T10:36:37;98358.88;;;18.68;95.91
21824;BME280;11074;48.596;9.238;2022-10-16T10:42:00;98362.84;;;18.76;95.37
21824;BME280;11074;48.596;9.238;2022-10-16T10:45:27;98364.22;;;18.87;95.49
21824;BME280;11074;48.596;9.238;2022-10-16T10:51:08;98365.94;;;18.97;93.47
21824;BME280;11074;48.596;9.238;2022-10-16T10:53:59;98361.22;;;19.02;91.01
21824;BME280;11074;48.596;9.238;2022-10-16T10:56:46;98360.63;;;19.05;92.65
21824;BME280;11074;48.596;9.238;2022-10-16T11:02:04;98358.28;;;19.26;90.47
21824;BME280;11074;48.596;9.238;2022-10-16T11:07:47;98359.97;;;19.35;88.95
21824;BME280;11074;48.596;9.238;2022-10-16T11:10:45;98359.78;;;19.46;89.40
21824;BME280;11074;48.596;9.238;2022-10-16T11:13:46;98358.44;;;19.57;86.58
21824;BME280;11074;48.596;9.238;2022-10-16T11:16:32;98353.22;;;19.60;84.31
21824;BME280;11074;48.596;9.238;2022-10-16T11:21:50;98350.75;;;19.72;82.89
21824;BME280;11074;48.596;9.238;2022-10-16T11:24:43;98344.19;;;19.87;82.00
21824;BME280;11074;48.596;9.238;2022-10-16T11:27:17;98341.66;;;20.13;82.82
21824;BME280;11074;48.596;9.238;2022-10-16T11:30:02;98343.44;;;20.39;81.71
21824;BME280;11074;48.596;9.238;2022-10-16T11:32:47;98340.22;;;20.68;79.60
21824;BME280;11074;48.596;9.238;2022-10-16T11:35:24;98338.88;;;20.88;79.74
21824;BME280;11074;48.596;9.238;2022-10-16T11:37:53;98338.03;;;21.09;77.90
21824;BME280;11074;48.596;9.238;2022-10-16T11:40:31;98332.75;;;21.22;76.10
21824;BME280;11074;48.596;9.238;2022-10-16T11:43:27;98344.44;;;21.22;74.08
21824;BME280;11074;48.596;9.238;2022-10-16T11:45:58;98337.75;;;21.28;72.80
21824;BME280;11074;48.596;9.238;2022-10-16T11:48:55;98344.44;;;21.22;71.80
21824;BME280;11074;48.596;9.238;2022-10-16T11:51:43;98332.78;;;21.30;70.93
21824;BME280;11074;48.596;9.238;2022-10-16T11:56:54;98333.78;;;21.51;70.61
21824;BME280;11074;48.596;9.238;2022-10-16T11:59:48;98337.59;;;21.50;68.50
21824;BME280;11074;48.596;9.238;2022-10-16T12:03:02;98327.53;;;21.68;68.49
21824;BME280;11074;48.596;9.238;2022-10-16T12:08:37;98323.69;;;21.77;68.39
21824;BME280;11074;48.596;9.238;2022-10-16T12:11:38;98321.81;;;21.95;67.14
21824;BME280;11074;48.596;9.238;2022-10-16T12:14:22;98322.28;;;22.06;67.32
21824;BME280;11074;48.596;9.238;2022-10-16T12:16:52;98329.63;;;22.14;66.88
21824;BME280;11074;48.596;9.238;2022-10-16T12:19:18;98326.41;;;22.20;66.79
21824;BME280;11074;48.596;9.238;2022-10-16T12:21:45;98314.69;;;22.28;66.26
21824;BME280;11074;48.596;9.238;2022-10-16T12:24:38;98322.50;;;22.47;66.35
21824;BME280;11074;48.596;9.238;2022-10-16T12:27:21;98321.47;;;22.60;64.89
21824;BME280;11074;48.596;9.238;2022-10-16T12:29:59;98323.22;;;22.73;64.60
21824;BME280;11074;48.596;9.238;2022-10-16T12:32:39;98326.38;;;22.84;63.15
21824;BME280;11074;48.596;9.238;2022-10-16T12:35:19;98314.81;;;22.87;63.04
21824;BME280;11074;48.596;9.238;2022-10-16T12:37:46;98326.25;;;22.80;63.35
21824;BME280;11074;48.596;9.238;2022-10-16T12:40:32;98335.41;;;22.76;63.37
21824;BME280;11074;48.596;9.238;2022-10-16T12:42:58;98324.19;;;22.77;63.69
21824;BME280;11074;48.596;9.238;2022-10-16T12:45:30;98321.88;;;22.33;64.52
21824;BME280;11074;48.596;9.238;2022-10-16T12:47:58;98329.03;;;22.55;64.01
21824;BME280;11074;48.596;9.238;2022-10-16T12:50:36;98339.38;;;22.78;63.33
21824;BME280;11074;48.596;9.238;2022-10-16T12:53:24;98323.63;;;22.92;62.56
21824;BME280;11074;48.596;9.238;2022-10-16T12:56:24;98324.31;;;23.10;61.47
21824;BME280;11074;48.596;9.238;2022-10-16T12:59:04;98322.97;;;23.25;61.20
21824;BME280;11074;48.596;9.238;2022-10-16T13:07:52;98317.88;;;23.65;60.32
21824;BME280;11074;48.596;9.238;2022-10-16T13:10:34;98331.03;;;23.71;61.12
21824;BME280;11074;48.596;9.238;2022-10-16T13:22:15;98337.34;;;23.63;60.04
21824;BME280;11074;48.596;9.238;2022-10-16T13:28:06;98326.09;;;23.44;60.50
21824;BME280;11074;48.596;9.238;2022-10-16T13:30:42;98342.16;;;23.37;61.36
21824;BME280;11074;48.596;9.238;2022-10-16T13:33:35;98329.84;;;23.31;62.34
21824;BME280;11074;48.596;9.238;2022-10-16T13:36:04;98341.59;;;23.23;61.43
21824;BME280;11074;48.596;9.238;2022-10-16T13:38:34;98339.91;;;23.10;62.27
21824;BME280;11074;48.596;9.238;2022-10-16T13:41:03;98335.56;;;23.09;63.51
21824;BME280;11074;48.596;9.238;2022-10-16T13:43:51;98342.63;;;23.10;64.18
21824;BME280;11074;48.596;9.238;2022-10-16T13:46:21;98342.72;;;23.22;63.52
21824;BME280;11074;48.596;9.238;2022-10-16T13:49:16;98331.59;;;23.27;62.83
21824;BME280;11074;48.596;9.238;2022-10-16T13:51:55;98334.47;;;23.30;62.72
21824;BME280;11074;48.596;9.238;2022-10-16T13:54:22;98333.88;;;23.25;63.13
21824;BME280;11074;48.596;9.238;2022-10-16T13:56:48;98331.00;;;23.21;66.08
21824;BME280;11074;48.596;9.238;2022-10-16T13:59:35;98339.38;;;23.16;66.71
21824;BME280;11074;48.596;9.238;2022-10-16T14:02:18;98334.44;;;23.10;65.74
21824;BME280;11074;48.596;9.238;2022-10-16T14:04:47;98332.56;;;23.02;67.94
21824;BME280;11074;48.596;9.238;2022-10-16T14:07:28;98341.06;;;23.00;69.65
21824;BME280;11074;48.596;9.238;2022-10-16T14:09:55;98339.06;;;22.88;69.72
21824;BME280;11074;48.596;9.238;2022-10-16T14:12:23;98337.66;;;22.74;69.42
21824;BME280;11074;48.596;9.238;2022-10-16T14:14:53;98346.34;;;22.67;70.38
21824;BME280;11074;48.596;9.238;2022-10-16T14:17:25;98344.91;;;22.61;71.63
21824;BME280;11074;48.596;9.238;2022-10-16T14:19:55;98341.84;;;22.54;71.42
21824;BME280;11074;48.596;9.238;2022-10-16T14:22:38;98336.09;;;22.47;71.56
21824;BME280;11074;48.596;9.238;2022-10-16T14:25:31;98346.06;;;22.43;72.86
21824;BME280;11074;48.596;9.238;2022-10-16T14:28:16;98344.81;;;22.32;72.71
21824;BME280;11074;48.596;9.238;2022-10-16T14:30:56;98349.94;;;22.25;74.06
21824;BME280;11074;48.596;9.238;2022-10-16T14:36:12;98337.47;;;22.15;74.45
21824;BME280;11074;48.596;9.238;2022-10-16T14:38:42;98349.81;;;22.13;74.54
21824;BME280;11074;48.596;9.238;2022-10-16T14:41:13;98348.53;;;22.10;74.23
21824;BME280;11074;48.596;9.238;2022-10-16T14:43:42;98346.44;;;22.07;74.72
21824;BME280;11074;48.596;9.238;2022-10-16T14:46:17;98349.97;;;22.08;76.38
21824;BME280;11074;48.596;9.238;2022-10-16T14:48:49;98354.94;;;22.06;77.15